Mount Signal, California
Current Conditions -  °F | °C
As of 10:53 PM on Saturday 22 Nov 2014 (Local Time) from KIPL Reporting Station
Clear Clear  
Wind Chill: 60°   Ceiling: Unl
Heat Index: 60°   Visibility: 10mi
Dew Point: 39°   Wind: 0mph
Humidity: 46%   Direction: NA
Pressure: 29.89"   Gusts: NA
Location:  32.6882°N, 115.548°W
Report Text: KIPL 230653Z AUTO 00000KT 10SM CLR 16/04 A2989 RMK AO2 SLP121 T01560039
Loading
Personal Weather Stations






























Interactive Weather Map New forecast layout! Learn more

10-Day Weather Forecast

Advertisements
Track Severe Weather on mobile